Time;durP1;ratioP1;P1;durP2;ratioP2;P2;SDS_P1;SDS_P2;PMS_P1;PMS_P2;Temp;Humidity;BMP_temperature;BMP_pressure;BME280_temperature;BME280_humidity;BME280_pressure;Samples;Min_cycle;Max_cycle;Signal;HPM_P1;HPM_P2
2022/08/02 00:01:30;;;;;;;2.72;2.10;;;;;;;;;;5090208;28;20028;-79
2022/08/02 00:03:56;;;;;;;3.13;2.00;;;;;;;;;;5087610;28;20059;-79
2022/08/02 00:06:22;;;;;;;3.03;2.28;;;;;;;;;;5056220;28;20021;-80
2022/08/02 00:08:48;;;;;;;4.90;2.53;;;;;;;;;;5056633;28;20024;-80
2022/08/02 00:11:14;;;;;;;2.80;2.25;;;;;;;;;;5090146;28;20394;-81
2022/08/02 00:13:40;;;;;;;3.38;2.30;;;;;;;;;;5090182;28;20039;-80
2022/08/02 00:16:06;;;;;;;6.47;2.45;;;;;;;;;;5090874;28;20028;-80
2022/08/02 00:18:32;;;;;;;2.42;2.10;;;;;;;;;;5090936;28;20161;-79
2022/08/02 00:20:58;;;;;;;2.40;2.15;;;;;;;;;;5090876;28;20050;-80
2022/08/02 00:23:24;;;;;;;2.85;2.38;;;;;;;;;;5076008;28;20424;-79
2022/08/02 00:25:50;;;;;;;2.65;2.10;;;;;;;;;;5033516;28;20022;-80
2022/08/02 00:28:19;;;;;;;2.55;2.00;;;;;;;;;;5032534;28;20364;-83
2022/08/02 00:30:45;;;;;;;3.10;2.10;;;;;;;;;;5034510;28;20502;-80
2022/08/02 00:33:11;;;;;;;2.60;2.28;;;;;;;;;;5034257;28;20044;-80
2022/08/02 00:35:37;;;;;;;4.20;2.42;;;;;;;;;;5034963;28;20406;-80
2022/08/02 00:38:03;;;;;;;6.07;2.10;;;;;;;;;;5034265;28;20029;-83
2022/08/02 00:40:29;;;;;;;2.88;2.40;;;;;;;;;;5033366;28;20056;-83
2022/08/02 00:43:06;;;;;;;2.65;2.05;;;;;;;;;;5034484;28;20034;-80
2022/08/02 00:45:33;;;;;;;2.78;2.45;;;;;;;;;;5034738;28;20116;-83
2022/08/02 00:47:59;;;;;;;4.03;2.70;;;;;;;;;;5033239;28;20022;-80
2022/08/02 00:50:25;;;;;;;3.95;2.40;;;;;;;;;;5033290;28;20083;-79
2022/08/02 00:52:51;;;;;;;2.80;2.30;;;;;;;;;;5033548;28;20090;-80
2022/08/02 00:55:17;;;;;;;2.55;2.20;;;;;;;;;;5032696;28;20487;-81
2022/08/02 00:57:43;;;;;;;3.63;2.20;;;;;;;;;;5033061;28;20073;-79
2022/08/02 01:00:10;;;;;;;2.85;2.20;;;;;;;;;;5023800;28;20026;-80
2022/08/02 01:02:36;;;;;;;3.40;2.25;;;;;;;;;;5015569;28;20060;-83
2022/08/02 01:05:02;;;;;;;2.67;2.00;;;;;;;;;;5032847;28;20044;-80
2022/08/02 01:07:28;;;;;;;2.92;2.30;;;;;;;;;;5025600;28;20026;-80
2022/08/02 01:09:54;;;;;;;3.15;2.00;;;;;;;;;;5029142;28;20033;-80
2022/08/02 01:12:20;;;;;;;5.53;2.10;;;;;;;;;;5028604;28;20105;-81
2022/08/02 01:14:48;;;;;;;2.83;2.20;;;;;;;;;;5029828;28;20041;-81
2022/08/02 01:17:24;;;;;;;2.90;2.20;;;;;;;;;;5029645;28;20033;-80
2022/08/02 01:20:14;;;;;;;3.33;2.38;;;;;;;;;;5013673;28;20037;-82
2022/08/02 01:22:55;;;;;;;3.08;2.03;;;;;;;;;;5041747;28;20049;-80
2022/08/02 01:25:54;;;;;;;2.60;2.40;;;;;;;;;;5054020;28;20025;-80
2022/08/02 01:28:20;;;;;;;2.50;2.30;;;;;;;;;;5057393;28;20037;-82
2022/08/02 01:30:47;;;;;;;2.15;1.92;;;;;;;;;;5055644;28;20438;-84
2022/08/02 01:33:16;;;;;;;3.65;1.92;;;;;;;;;;5054878;28;20033;-84
2022/08/02 01:35:43;;;;;;;2.88;2.10;;;;;;;;;;5055912;28;20127;-82
2022/08/02 01:38:25;;;;;;;2.28;1.83;;;;;;;;;;5055650;28;20103;-80
2022/08/02 01:40:52;;;;;;;2.45;1.83;;;;;;;;;;5073700;28;20055;-80
2022/08/02 01:43:20;;;;;;;3.30;2.35;;;;;;;;;;5041335;28;20483;-80
2022/08/02 01:45:47;;;;;;;2.47;2.10;;;;;;;;;;5053398;28;20060;-80
2022/08/02 01:48:14;;;;;;;3.35;2.10;;;;;;;;;;5082841;28;20036;-81
2022/08/02 01:50:40;;;;;;;2.63;2.03;;;;;;;;;;5089024;28;20025;-84
2022/08/02 01:53:07;;;;;;;3.00;2.08;;;;;;;;;;5087990;28;20028;-79
2022/08/02 01:55:36;;;;;;;2.78;2.10;;;;;;;;;;5089011;28;20106;-79
2022/08/02 01:58:04;;;;;;;3.33;2.20;;;;;;;;;;5088700;28;20055;-82
2022/08/02 02:00:31;;;;;;;3.40;2.10;;;;;;;;;;5088666;28;20029;-84
2022/08/02 02:02:57;;;;;;;3.10;1.75;;;;;;;;;;5086504;28;20040;-79
2022/08/02 02:05:25;;;;;;;2.25;2.00;;;;;;;;;;5088784;28;20024;-80
2022/08/02 02:07:55;;;;;;;3.80;2.28;;;;;;;;;;5070554;28;20059;-84
2022/08/02 02:10:24;;;;;;;2.20;1.98;;;;;;;;;;5072795;28;20111;-84
2022/08/02 02:12:50;;;;;;;1.90;1.80;;;;;;;;;;5054812;28;20405;-84
2022/08/02 02:15:16;;;;;;;4.72;2.10;;;;;;;;;;5065540;28;20024;-84
2022/08/02 02:17:44;;;;;;;2.38;1.80;;;;;;;;;;5055196;28;20017;-84
2022/08/02 02:20:14;;;;;;;2.05;1.73;;;;;;;;;;5055408;28;20024;-82
2022/08/02 02:22:40;;;;;;;2.33;1.60;;;;;;;;;;5054497;28;20056;-82
2022/08/02 02:25:07;;;;;;;2.85;2.00;;;;;;;;;;5056789;28;20044;-82
2022/08/02 02:27:34;;;;;;;2.03;1.80;;;;;;;;;;5072791;28;20032;-83
2022/08/02 02:30:00;;;;;;;2.47;1.90;;;;;;;;;;5072634;28;20029;-82
2022/08/02 02:32:27;;;;;;;2.05;1.85;;;;;;;;;;5066761;28;20017;-81
2022/08/02 02:34:55;;;;;;;2.75;1.90;;;;;;;;;;5053346;28;20017;-84
2022/08/02 02:37:22;;;;;;;1.98;1.88;;;;;;;;;;5070904;28;20473;-81
2022/08/02 02:39:53;;;;;;;1.70;1.60;;;;;;;;;;5054644;28;20032;-82
2022/08/02 02:42:21;;;;;;;1.85;1.75;;;;;;;;;;5071279;28;20059;-81
2022/08/02 02:44:48;;;;;;;3.00;1.50;;;;;;;;;;5054609;28;20106;-85
2022/08/02 02:47:14;;;;;;;2.47;2.25;;;;;;;;;;5053690;28;20025;-83
2022/08/02 02:49:42;;;;;;;2.00;1.80;;;;;;;;;;5054362;28;20082;-80
2022/08/02 02:52:08;;;;;;;3.73;1.80;;;;;;;;;;5053391;28;20020;-84
2022/08/02 02:54:35;;;;;;;4.13;1.90;;;;;;;;;;5053992;28;20063;-83
2022/08/02 02:57:02;;;;;;;1.80;1.67;;;;;;;;;;5085438;28;20024;-83
2022/08/02 02:59:29;;;;;;;2.08;1.67;;;;;;;;;;5071931;28;20028;-82
2022/08/02 03:01:55;;;;;;;2.25;1.60;;;;;;;;;;5071236;28;20497;-83
2022/08/02 03:04:21;;;;;;;2.03;1.77;;;;;;;;;;5071793;28;20256;-84
2022/08/02 03:06:47;;;;;;;2.10;1.83;;;;;;;;;;5072283;28;20028;-85
2022/08/02 03:09:13;;;;;;;2.13;1.55;;;;;;;;;;5068788;28;20020;-83
2022/08/02 03:11:40;;;;;;;2.63;1.73;;;;;;;;;;5054076;28;20020;-85
2022/08/02 03:14:08;;;;;;;1.95;1.60;;;;;;;;;;5071891;28;20027;-86
2022/08/02 03:16:40;;;;;;;3.17;2.10;;;;;;;;;;5054166;28;20024;-83
2022/08/02 03:19:06;;;;;;;2.92;1.80;;;;;;;;;;5053604;28;20513;-84
2022/08/02 03:21:32;;;;;;;2.35;1.80;;;;;;;;;;5065703;28;20048;-83
2022/08/02 03:23:59;;;;;;;2.58;1.55;;;;;;;;;;5057473;28;20495;-83
2022/08/02 03:26:25;;;;;;;5.05;1.90;;;;;;;;;;5072069;28;20017;-86
2022/08/02 03:28:51;;;;;;;2.80;1.85;;;;;;;;;;5052787;28;20081;-83
2022/08/02 03:31:17;;;;;;;3.22;1.60;;;;;;;;;;5070858;28;20340;-83
2022/08/02 03:33:43;;;;;;;1.75;1.63;;;;;;;;;;5086495;28;20029;-85
2022/08/02 03:36:14;;;;;;;3.08;1.75;;;;;;;;;;5071789;28;20017;-85
2022/08/02 03:38:41;;;;;;;2.08;1.70;;;;;;;;;;5087678;28;20021;-85
2022/08/02 03:41:08;;;;;;;2.38;2.00;;;;;;;;;;5087694;28;20462;-84
2022/08/02 03:43:35;;;;;;;3.10;1.70;;;;;;;;;;5085362;28;20054;-84
2022/08/02 03:46:03;;;;;;;2.00;1.90;;;;;;;;;;5053862;28;20055;-80
2022/08/02 03:48:29;;;;;;;4.55;1.90;;;;;;;;;;5041144;28;20025;-81
2022/08/02 03:50:56;;;;;;;2.88;2.00;;;;;;;;;;5067033;28;20025;-79
2022/08/02 03:53:22;;;;;;;1.75;1.60;;;;;;;;;;5066717;28;20025;-80
2022/08/02 03:55:48;;;;;;;1.73;1.52;;;;;;;;;;5067271;28;20021;-80
2022/08/02 03:58:18;;;;;;;3.75;1.92;;;;;;;;;;5066547;28;20465;-80
2022/08/02 04:00:45;;;;;;;2.83;2.03;;;;;;;;;;5051478;28;20060;-80
2022/08/02 04:03:10;;;;;;;2.33;1.83;;;;;;;;;;5078619;28;20031;-81
2022/08/02 04:05:36;;;;;;;2.95;1.88;;;;;;;;;;5087163;28;20028;-80
2022/08/02 04:08:03;;;;;;;1.85;1.70;;;;;;;;;;5068987;28;20042;-80
2022/08/02 04:10:29;;;;;;;1.95;1.70;;;;;;;;;;5087213;28;20324;-80
2022/08/02 04:12:55;;;;;;;2.33;1.70;;;;;;;;;;5085870;28;20020;-80
2022/08/02 04:15:22;;;;;;;3.38;1.80;;;;;;;;;;5070819;28;20534;-79
2022/08/02 04:17:55;;;;;;;3.58;1.70;;;;;;;;;;5087060;28;20112;-85
2022/08/02 04:20:24;;;;;;;2.03;1.85;;;;;;;;;;5087116;28;20067;-80
2022/08/02 04:22:50;;;;;;;;;;;;;;;;;;5085111;28;20032;-80
2022/08/02 04:25:16;;;;;;;2.83;1.88;;;;;;;;;;5053596;28;19929;-82
2022/08/02 04:27:42;;;;;;;2.40;1.65;;;;;;;;;;5051939;28;20028;-81
2022/08/02 04:30:08;;;;;;;2.13;1.92;;;;;;;;;;5086733;28;20356;-84
2022/08/02 04:32:35;;;;;;;2.85;2.13;;;;;;;;;;5056817;28;20032;-80
2022/08/02 04:35:01;;;;;;;2.85;2.40;;;;;;;;;;5056807;28;20469;-80
2022/08/02 04:37:27;;;;;;;3.13;2.03;;;;;;;;;;5057036;28;20021;-81
2022/08/02 04:39:53;;;;;;;3.63;2.10;;;;;;;;;;5057070;28;20028;-82
2022/08/02 04:42:20;;;;;;;2.75;2.13;;;;;;;;;;5056752;28;20021;-82
2022/08/02 04:44:46;;;;;;;2.95;2.10;;;;;;;;;;5074290;28;20029;-79
2022/08/02 04:47:12;;;;;;;2.55;2.00;;;;;;;;;;5074600;28;20024;-81
2022/08/02 04:49:38;;;;;;;2.55;1.98;;;;;;;;;;5056646;28;20028;-79
2022/08/02 04:52:04;;;;;;;2.50;1.92;;;;;;;;;;5056641;28;20016;-80
2022/08/02 04:54:30;;;;;;;3.60;2.70;;;;;;;;;;5073225;28;20478;-79
2022/08/02 04:56:56;;;;;;;2.33;2.13;;;;;;;;;;5064797;28;20021;-82
2022/08/02 04:59:22;;;;;;;2.30;2.00;;;;;;;;;;5078515;28;20025;-83
2022/08/02 05:01:48;;;;;;;2.78;2.00;;;;;;;;;;5057993;28;20155;-79
2022/08/02 05:04:14;;;;;;;2.60;1.92;;;;;;;;;;5068843;28;20044;-80
2022/08/02 05:06:40;;;;;;;1.70;1.60;;;;;;;;;;5077697;28;20025;-79
2022/08/02 05:09:06;;;;;;;3.53;2.30;;;;;;;;;;5078269;28;20028;-80
2022/08/02 05:11:35;;;;;;;2.63;2.13;;;;;;;;;;5068682;28;20029;-80
2022/08/02 05:14:00;;;;;;;;;;;;;;;;;;5072269;28;20032;-79
2022/08/02 05:16:27;;;;;;;3.08;2.35;;;;;;;;;;5055166;28;20339;-81
2022/08/02 05:18:53;;;;;;;2.30;1.85;;;;;;;;;;5088231;28;20098;-80
2022/08/02 05:21:19;;;;;;;2.78;2.20;;;;;;;;;;5073155;28;20048;-81
2022/08/02 05:23:45;;;;;;;2.97;2.20;;;;;;;;;;5086111;28;20057;-80
2022/08/02 05:26:10;;;;;;;2.75;2.30;;;;;;;;;;5088173;28;20434;-83
2022/08/02 05:28:36;;;;;;;3.28;2.28;;;;;;;;;;5087804;28;20394;-84
2022/08/02 05:31:02;;;;;;;4.50;2.30;;;;;;;;;;5088453;28;20120;-83
2022/08/02 05:33:28;;;;;;;2.33;2.10;;;;;;;;;;5088370;28;20043;-82
2022/08/02 05:35:54;;;;;;;3.03;1.85;;;;;;;;;;5072918;28;20032;-80
2022/08/02 05:38:20;;;;;;;2.75;2.33;;;;;;;;;;5088608;28;20070;-80
2022/08/02 05:40:46;;;;;;;2.40;1.80;;;;;;;;;;5073563;28;20025;-80
2022/08/02 05:43:15;;;;;;;2.40;2.20;;;;;;;;;;5087438;28;20492;-80
2022/08/02 05:45:41;;;;;;;2.30;2.10;;;;;;;;;;5073443;28;20047;-80
2022/08/02 05:48:07;;;;;;;2.35;2.15;;;;;;;;;;5054316;28;20031;-79
2022/08/02 05:50:37;;;;;;;3.88;2.50;;;;;;;;;;5055580;28;20020;-80
2022/08/02 05:53:05;;;;;;;5.95;2.53;;;;;;;;;;5071566;28;20021;-80
2022/08/02 05:55:35;;;;;;;6.40;2.60;;;;;;;;;;5088953;28;20051;-80
2022/08/02 05:58:18;;;;;;;4.93;2.08;;;;;;;;;;5057857;28;20478;-81
2022/08/02 06:00:44;;;;;;;2.45;1.95;;;;;;;;;;5061083;28;20090;-80
2022/08/02 06:03:30;;;;;;;2.92;2.05;;;;;;;;;;5073087;28;20487;-79
2022/08/02 06:05:56;;;;;;;2.25;1.92;;;;;;;;;;5072550;28;20089;-81
2022/08/02 06:08:24;;;;;;;3.30;2.17;;;;;;;;;;5073016;28;20025;-80
2022/08/02 06:10:51;;;;;;;2.50;2.00;;;;;;;;;;5084009;28;20086;-85
2022/08/02 06:13:18;;;;;;;2.35;2.13;;;;;;;;;;5054894;28;20081;-79
2022/08/02 06:15:44;;;;;;;2.03;1.92;;;;;;;;;;5072963;28;20024;-80
2022/08/02 06:18:10;;;;;;;3.17;2.10;;;;;;;;;;5056627;28;20025;-80
2022/08/02 06:20:36;;;;;;;2.42;2.10;;;;;;;;;;5084099;28;20025;-81
2022/08/02 06:23:03;;;;;;;2.80;1.98;;;;;;;;;;5066855;28;20076;-81
2022/08/02 06:25:29;;;;;;;2.38;2.17;;;;;;;;;;5080297;28;20017;-80
2022/08/02 06:27:56;;;;;;;2.10;1.80;;;;;;;;;;5085834;28;20044;-82
2022/08/02 06:30:22;;;;;;;2.35;1.92;;;;;;;;;;5070547;28;20024;-82
2022/08/02 06:32:50;;;;;;;2.35;1.90;;;;;;;;;;5084085;28;20023;-83
2022/08/02 06:35:16;;;;;;;2.53;1.90;;;;;;;;;;5059673;28;20058;-79
2022/08/02 06:37:59;;;;;;;1.90;1.77;;;;;;;;;;5053997;28;20020;-80
2022/08/02 06:40:42;;;;;;;1.85;1.75;;;;;;;;;;5052566;28;20407;-80
2022/08/02 06:43:08;;;;;;;1.75;1.58;;;;;;;;;;5049210;28;20538;-81
2022/08/02 06:45:34;;;;;;;2.67;1.73;;;;;;;;;;5088170;28;20036;-84
2022/08/02 06:48:00;;;;;;;1.95;1.75;;;;;;;;;;5070676;28;20009;-81
2022/08/02 06:50:26;;;;;;;1.88;1.73;;;;;;;;;;5072355;28;20552;-82
2022/08/02 06:52:52;;;;;;;2.17;1.70;;;;;;;;;;5070042;28;20028;-80
2022/08/02 06:55:18;;;;;;;2.00;1.90;;;;;;;;;;5051897;28;20082;-80
2022/08/02 06:57:44;;;;;;;1.70;1.60;;;;;;;;;;5068969;28;20032;-81
2022/08/02 07:00:11;;;;;;;1.92;1.80;;;;;;;;;;5086385;28;20024;-81
2022/08/02 07:02:38;;;;;;;1.77;1.67;;;;;;;;;;5085862;28;20074;-81
2022/08/02 07:05:05;;;;;;;1.83;1.52;;;;;;;;;;5087201;28;20028;-80
2022/08/02 07:07:31;;;;;;;2.35;1.92;;;;;;;;;;5070683;28;20027;-81
2022/08/02 07:09:57;;;;;;;2.55;1.80;;;;;;;;;;5071648;28;20029;-81
2022/08/02 07:12:23;;;;;;;3.38;1.90;;;;;;;;;;5071254;28;20374;-81
2022/08/02 07:14:49;;;;;;;2.47;1.80;;;;;;;;;;5053906;28;20024;-81
2022/08/02 07:17:15;;;;;;;2.50;1.95;;;;;;;;;;5052538;28;20039;-82
2022/08/02 07:19:41;;;;;;;1.73;1.63;;;;;;;;;;5071363;28;20482;-80
2022/08/02 07:22:07;;;;;;;3.38;1.95;;;;;;;;;;5080585;28;20064;-81
2022/08/02 07:24:33;;;;;;;1.85;1.63;;;;;;;;;;5051529;28;20049;-81
2022/08/02 07:26:59;;;;;;;2.50;1.85;;;;;;;;;;5053690;28;20031;-80
2022/08/02 07:29:26;;;;;;;1.70;1.60;;;;;;;;;;5053406;28;20482;-81
2022/08/02 07:31:52;;;;;;;3.28;2.17;;;;;;;;;;5070270;28;20099;-81
2022/08/02 07:34:18;;;;;;;3.17;2.10;;;;;;;;;;5083951;28;20098;-80
2022/08/02 07:36:44;;;;;;;2.13;1.90;;;;;;;;;;5053499;28;20492;-80
2022/08/02 07:39:09;;;;;;;1.60;1.50;;;;;;;;;;5086843;28;20024;-81
2022/08/02 07:41:35;;;;;;;2.17;1.70;;;;;;;;;;5070525;28;20067;-81
2022/08/02 07:44:01;;;;;;;2.00;1.58;;;;;;;;;;5055198;28;20028;-81
2022/08/02 07:46:27;;;;;;;2.50;1.70;;;;;;;;;;5061117;28;20024;-83
2022/08/02 07:48:53;;;;;;;3.00;1.90;;;;;;;;;;5059445;28;20024;-81
2022/08/02 07:51:20;;;;;;;1.67;1.50;;;;;;;;;;5070878;28;20421;-83
2022/08/02 07:53:46;;;;;;;2.10;1.80;;;;;;;;;;5052648;28;20413;-83
2022/08/02 07:56:12;;;;;;;1.83;1.73;;;;;;;;;;5069373;28;20028;-80
2022/08/02 07:58:40;;;;;;;2.97;2.05;;;;;;;;;;5069585;28;20104;-83
2022/08/02 08:01:06;;;;;;;2.03;1.60;;;;;;;;;;5071250;28;20040;-81
2022/08/02 08:03:32;;;;;;;4.47;2.10;;;;;;;;;;5082953;28;20123;-81
2022/08/02 08:05:58;;;;;;;2.42;1.90;;;;;;;;;;5072166;28;20092;-82
2022/08/02 08:08:24;;;;;;;2.10;1.90;;;;;;;;;;5072704;28;20383;-81
2022/08/02 08:10:50;;;;;;;2.05;1.80;;;;;;;;;;5090067;28;20060;-83
2022/08/02 08:13:16;;;;;;;2.60;2.40;;;;;;;;;;5089550;28;20028;-82
2022/08/02 08:15:42;;;;;;;1.80;1.70;;;;;;;;;;5091008;28;20017;-81
2022/08/02 08:18:08;;;;;;;3.10;2.35;;;;;;;;;;5074663;28;20044;-81
2022/08/02 08:20:34;;;;;;;2.25;2.05;;;;;;;;;;5090936;28;20120;-81
2022/08/02 08:23:00;;;;;;;2.47;1.80;;;;;;;;;;5086877;28;20051;-80
2022/08/02 08:25:26;;;;;;;3.05;2.30;;;;;;;;;;5075341;28;20033;-83
2022/08/02 08:27:52;;;;;;;2.67;1.90;;;;;;;;;;5088807;28;20016;-83
2022/08/02 08:30:19;;;;;;;2.45;1.92;;;;;;;;;;5075195;28;20024;-84
2022/08/02 08:32:45;;;;;;;1.73;1.60;;;;;;;;;;5055995;28;20344;-82
2022/08/02 08:35:12;;;;;;;1.88;1.77;;;;;;;;;;5056999;28;20017;-81
2022/08/02 08:37:39;;;;;;;1.98;1.77;;;;;;;;;;5056422;28;20165;-82
2022/08/02 08:40:05;;;;;;;1.73;1.63;;;;;;;;;;5056990;28;20107;-83
2022/08/02 08:42:32;;;;;;;1.98;1.80;;;;;;;;;;5055555;28;20463;-80
2022/08/02 08:44:58;;;;;;;1.58;1.48;;;;;;;;;;5070851;28;20071;-81
2022/08/02 08:47:32;;;;;;;2.17;1.60;;;;;;;;;;5088128;28;20020;-81
2022/08/02 08:50:01;;;;;;;1.92;1.75;;;;;;;;;;5071469;28;20110;-81
2022/08/02 08:52:27;;;;;;;1.80;1.70;;;;;;;;;;5074391;28;20047;-81
2022/08/02 08:54:53;;;;;;;2.05;1.80;;;;;;;;;;5071013;28;20371;-82
2022/08/02 08:57:20;;;;;;;1.70;1.60;;;;;;;;;;5073154;28;20100;-84
2022/08/02 08:59:46;;;;;;;2.00;1.80;;;;;;;;;;5076740;28;20025;-82
2022/08/02 09:02:12;;;;;;;2.40;1.80;;;;;;;;;;5068124;28;20021;-81
2022/08/02 09:04:38;;;;;;;2.42;1.63;;;;;;;;;;5072738;28;20497;-81
2022/08/02 09:07:04;;;;;;;1.73;1.63;;;;;;;;;;5072485;28;20032;-81
2022/08/02 09:09:30;;;;;;;1.50;1.40;;;;;;;;;;5088134;28;20390;-80
2022/08/02 09:12:12;;;;;;;1.70;1.60;;;;;;;;;;5088093;28;20446;-81
2022/08/02 09:14:41;;;;;;;2.20;2.00;;;;;;;;;;5061301;28;20047;-81
2022/08/02 09:17:08;;;;;;;1.88;1.48;;;;;;;;;;5087973;28;20033;-81
2022/08/02 09:19:35;;;;;;;3.40;1.80;;;;;;;;;;5088090;28;20375;-81
2022/08/02 09:22:08;;;;;;;1.70;1.60;;;;;;;;;;5089726;28;20475;-81
2022/08/02 09:24:42;;;;;;;1.85;1.75;;;;;;;;;;5080613;28;20139;-81
2022/08/02 09:27:12;;;;;;;1.85;1.75;;;;;;;;;;5089454;28;20351;-84
2022/08/02 09:29:38;;;;;;;1.88;1.58;;;;;;;;;;5086984;28;20024;-80
2022/08/02 09:32:04;;;;;;;2.03;1.70;;;;;;;;;;5088509;28;20032;-80
2022/08/02 09:34:44;;;;;;;2.65;1.70;;;;;;;;;;5055545;28;20047;-82
2022/08/02 09:37:29;;;;;;;1.60;1.45;;;;;;;;;;5089214;28;20025;-81
2022/08/02 09:39:56;;;;;;;1.88;1.65;;;;;;;;;;5087787;28;20094;-80
2022/08/02 09:42:25;;;;;;;1.80;1.70;;;;;;;;;;5087514;28;20255;-84
2022/08/02 09:44:58;;;;;;;1.95;1.75;;;;;;;;;;5053408;28;20506;-83
2022/08/02 09:47:25;;;;;;;1.90;1.75;;;;;;;;;;5077598;28;20020;-81
2022/08/02 09:49:51;;;;;;;3.30;1.83;;;;;;;;;;5087122;28;20350;-81
2022/08/02 09:52:21;;;;;;;2.17;1.65;;;;;;;;;;5078920;28;20032;-83
2022/08/02 09:54:47;;;;;;;1.90;1.60;;;;;;;;;;5072202;28;20033;-81
2022/08/02 09:57:24;;;;;;;2.33;1.70;;;;;;;;;;5051201;28;20083;-80
2022/08/02 09:59:57;;;;;;;1.63;1.52;;;;;;;;;;5061500;28;20093;-81
2022/08/02 10:02:23;;;;;;;2.38;1.92;;;;;;;;;;5070160;28;20029;-80
2022/08/02 10:04:50;;;;;;;1.70;1.60;;;;;;;;;;5081119;28;20520;-84
2022/08/02 10:07:16;;;;;;;2.45;2.00;;;;;;;;;;5062676;28;20475;-81
2022/08/02 10:09:44;;;;;;;2.60;1.70;;;;;;;;;;5052950;28;20108;-82
2022/08/02 10:12:10;;;;;;;1.65;1.55;;;;;;;;;;5085946;28;20044;-81
2022/08/02 10:14:37;;;;;;;2.08;1.63;;;;;;;;;;5069574;28;20024;-81
2022/08/02 10:17:06;;;;;;;1.95;1.85;;;;;;;;;;5061773;28;20467;-81
2022/08/02 10:19:33;;;;;;;2.25;1.70;;;;;;;;;;5071557;28;20028;-81
2022/08/02 10:22:09;;;;;;;1.80;1.70;;;;;;;;;;5051515;28;20017;-81
2022/08/02 10:24:36;;;;;;;1.70;1.60;;;;;;;;;;5068609;28;20040;-81
2022/08/02 10:27:02;;;;;;;2.78;1.92;;;;;;;;;;5086143;28;20059;-80
2022/08/02 10:29:30;;;;;;;1.63;1.52;;;;;;;;;;5081869;28;20035;-81
2022/08/02 10:32:10;;;;;;;2.00;1.75;;;;;;;;;;5053904;28;20103;-80
2022/08/02 10:34:39;;;;;;;1.73;1.63;;;;;;;;;;5071619;28;20059;-81
2022/08/02 10:37:06;;;;;;;2.00;1.80;;;;;;;;;;5067972;28;20532;-80
2022/08/02 10:39:42;;;;;;;2.45;1.90;;;;;;;;;;5086146;28;20024;-81
2022/08/02 10:42:08;;;;;;;1.70;1.58;;;;;;;;;;5071214;28;20526;-80
2022/08/02 10:44:35;;;;;;;1.80;1.65;;;;;;;;;;5087645;28;20040;-80
2022/08/02 10:47:13;;;;;;;1.73;1.63;;;;;;;;;;5070740;28;20052;-80
2022/08/02 10:49:50;;;;;;;2.45;1.77;;;;;;;;;;5050098;28;20174;-81
2022/08/02 10:52:17;;;;;;;2.75;2.00;;;;;;;;;;5087538;28;20621;-81
2022/08/02 10:54:47;;;;;;;1.90;1.80;;;;;;;;;;5085703;28;20059;-80
2022/08/02 10:57:22;;;;;;;1.77;1.67;;;;;;;;;;5068843;28;20031;-81
2022/08/02 10:59:49;;;;;;;1.67;1.52;;;;;;;;;;5071406;28;20172;-81
2022/08/02 11:02:32;;;;;;;2.13;1.55;;;;;;;;;;5070911;28;20016;-80
2022/08/02 11:05:04;;;;;;;3.75;2.10;;;;;;;;;;5068429;28;20032;-81
2022/08/02 11:07:35;;;;;;;2.15;2.03;;;;;;;;;;5071578;28;20040;-81
2022/08/02 11:10:21;;;;;;;2.42;1.95;;;;;;;;;;5052256;28;20056;-80
2022/08/02 11:13:01;;;;;;;2.20;2.00;;;;;;;;;;5052840;28;20037;-80
2022/08/02 11:15:27;;;;;;;1.80;1.70;;;;;;;;;;5085277;28;20479;-81
2022/08/02 11:17:54;;;;;;;2.13;1.92;;;;;;;;;;5085279;28;20025;-80
2022/08/02 11:20:21;;;;;;;1.83;1.58;;;;;;;;;;5084345;28;20112;-80
2022/08/02 11:22:48;;;;;;;2.05;1.58;;;;;;;;;;5069791;28;20043;-80
2022/08/02 11:25:23;;;;;;;2.17;1.80;;;;;;;;;;5070620;28;20029;-81
2022/08/02 11:27:49;;;;;;;2.22;1.80;;;;;;;;;;5068541;28;20025;-80
2022/08/02 11:30:16;;;;;;;1.98;1.88;;;;;;;;;;5085164;28;20127;-80
2022/08/02 11:32:42;;;;;;;2.47;1.90;;;;;;;;;;5051880;28;20021;-80
2022/08/02 11:35:08;;;;;;;2.03;1.80;;;;;;;;;;5051720;28;20016;-81
2022/08/02 11:37:35;;;;;;;1.85;1.70;;;;;;;;;;5071665;28;20374;-81
2022/08/02 11:40:05;;;;;;;2.58;1.83;;;;;;;;;;5084462;28;20436;-81
2022/08/02 11:42:32;;;;;;;1.98;1.88;;;;;;;;;;5062124;28;20029;-80
2022/08/02 11:44:58;;;;;;;2.33;1.88;;;;;;;;;;5075100;28;20310;-80
2022/08/02 11:47:24;;;;;;;1.88;1.65;;;;;;;;;;5075050;28;20052;-81
2022/08/02 11:49:50;;;;;;;2.08;1.80;;;;;;;;;;5072691;28;20517;-81
2022/08/02 11:52:16;;;;;;;2.20;2.00;;;;;;;;;;5057567;28;20027;-81
2022/08/02 11:54:43;;;;;;;2.42;1.70;;;;;;;;;;5061132;28;20040;-80
2022/08/02 11:57:21;;;;;;;2.10;1.90;;;;;;;;;;5054825;28;20029;-80
2022/08/02 11:59:49;;;;;;;1.90;1.70;;;;;;;;;;5073227;28;20124;-80
2022/08/02 12:02:15;;;;;;;1.70;1.60;;;;;;;;;;5074602;28;20052;-81
2022/08/02 12:04:42;;;;;;;2.38;1.70;;;;;;;;;;5088702;28;20119;-80
2022/08/02 12:07:08;;;;;;;1.95;1.75;;;;;;;;;;5053556;28;20028;-80
2022/08/02 12:09:35;;;;;;;3.05;1.80;;;;;;;;;;5059473;28;20024;-80
2022/08/02 12:12:02;;;;;;;3.13;1.90;;;;;;;;;;5074263;28;20021;-81
2022/08/02 12:14:29;;;;;;;2.22;1.92;;;;;;;;;;5089337;28;20028;-80
2022/08/02 12:19:41;;;;;;;2.22;2.03;;;;;;;;;;5075267;28;20048;-80
2022/08/02 12:22:13;;;;;;;2.30;1.90;;;;;;;;;;5090863;28;20094;-81
2022/08/02 12:24:40;;;;;;;2.13;1.83;;;;;;;;;;5071230;28;20331;-80
2022/08/02 12:27:06;;;;;;;2.90;1.90;;;;;;;;;;5084504;28;20028;-80
2022/08/02 12:29:35;;;;;;;2.00;1.80;;;;;;;;;;5088157;28;20052;-82
2022/08/02 12:32:02;;;;;;;2.47;1.90;;;;;;;;;;5073478;28;20023;-80
2022/08/02 12:34:29;;;;;;;1.85;1.75;;;;;;;;;;5073575;28;20028;-80
2022/08/02 12:37:04;;;;;;;1.80;1.70;;;;;;;;;;5074541;28;20099;-80
2022/08/02 12:39:34;;;;;;;1.92;1.75;;;;;;;;;;5072226;28;20033;-81
2022/08/02 12:42:00;;;;;;;2.55;2.20;;;;;;;;;;5088502;28;20035;-80
2022/08/02 12:44:26;;;;;;;1.83;1.63;;;;;;;;;;5085269;28;20098;-80
2022/08/02 12:47:03;;;;;;;1.70;1.58;;;;;;;;;;5087266;28;20037;-80
2022/08/02 12:49:29;;;;;;;1.98;1.70;;;;;;;;;;5070067;28;20035;-80
2022/08/02 12:51:56;;;;;;;2.33;1.65;;;;;;;;;;5071089;28;20125;-80
2022/08/02 12:54:26;;;;;;;2.38;1.75;;;;;;;;;;5084380;28;20035;-80
2022/08/02 12:56:53;;;;;;;1.92;1.70;;;;;;;;;;5054300;28;20025;-80
2022/08/02 12:59:38;;;;;;;2.28;1.80;;;;;;;;;;5089285;28;20363;-80
2022/08/02 13:02:05;;;;;;;2.05;1.70;;;;;;;;;;5087952;28;20021;-80
2022/08/02 13:04:32;;;;;;;2.03;1.83;;;;;;;;;;5073446;28;20035;-81
2022/08/02 13:06:58;;;;;;;2.05;1.85;;;;;;;;;;5073348;28;20017;-80
2022/08/02 13:09:24;;;;;;;1.95;1.70;;;;;;;;;;5057117;28;20024;-81
2022/08/02 13:11:50;;;;;;;2.22;1.70;;;;;;;;;;5042391;28;20024;-82
2022/08/02 13:14:16;;;;;;;2.13;1.55;;;;;;;;;;5074218;28;20024;-81
2022/08/02 13:16:44;;;;;;;2.75;1.60;;;;;;;;;;5074123;28;20029;-82
2022/08/02 13:19:10;;;;;;;3.33;1.90;;;;;;;;;;5064993;28;20522;-80
2022/08/02 13:21:36;;;;;;;1.63;1.52;;;;;;;;;;5068261;28;20017;-80
2022/08/02 13:24:02;;;;;;;2.30;1.83;;;;;;;;;;5060707;28;20115;-80
2022/08/02 13:26:28;;;;;;;1.83;1.70;;;;;;;;;;5055813;28;20020;-80
2022/08/02 13:28:54;;;;;;;1.70;1.60;;;;;;;;;;5049362;28;20426;-81
2022/08/02 13:31:20;;;;;;;1.77;1.67;;;;;;;;;;5052654;28;20112;-80
2022/08/02 13:33:46;;;;;;;1.70;1.58;;;;;;;;;;5052683;28;20382;-80
2022/08/02 13:36:12;;;;;;;1.70;1.60;;;;;;;;;;5069440;28;20078;-81
2022/08/02 13:38:37;;;;;;;2.38;1.60;;;;;;;;;;5053753;28;20028;-80
2022/08/02 13:41:09;;;;;;;1.83;1.58;;;;;;;;;;5063859;28;20077;-80
2022/08/02 13:43:36;;;;;;;1.60;1.50;;;;;;;;;;5072924;28;20047;-81
2022/08/02 13:46:03;;;;;;;1.20;1.20;;;;;;;;;;5055873;28;20075;-82
2022/08/02 13:48:29;;;;;;;2.28;1.30;;;;;;;;;;5071770;28;20016;-81
2022/08/02 13:50:55;;;;;;;1.40;1.30;;;;;;;;;;5073040;28;20029;-80
2022/08/02 13:53:21;;;;;;;1.60;1.50;;;;;;;;;;5054386;28;20025;-83
2022/08/02 13:55:47;;;;;;;1.25;1.15;;;;;;;;;;5073174;28;20032;-80
2022/08/02 13:58:13;;;;;;;1.48;1.38;;;;;;;;;;5072604;28;20028;-83
2022/08/02 14:00:39;;;;;;;1.70;1.40;;;;;;;;;;5072591;28;20521;-82
2022/08/02 14:03:05;;;;;;;2.45;1.50;;;;;;;;;;5070370;28;20032;-86
2022/08/02 14:05:31;;;;;;;2.17;1.60;;;;;;;;;;5068477;28;20036;-84
2022/08/02 14:07:58;;;;;;;1.92;1.30;;;;;;;;;;5072195;28;20048;-82
2022/08/02 14:10:25;;;;;;;1.60;1.50;;;;;;;;;;5086161;28;20475;-81
2022/08/02 14:12:51;;;;;;;1.67;1.58;;;;;;;;;;5072179;28;20051;-81
2022/08/02 14:15:23;;;;;;;1.42;1.33;;;;;;;;;;5088062;28;20127;-81
2022/08/02 14:17:49;;;;;;;1.98;1.20;;;;;;;;;;5072908;28;20031;-81
2022/08/02 14:20:15;;;;;;;1.50;1.40;;;;;;;;;;5073132;28;20017;-83
2022/08/02 14:22:42;;;;;;;1.98;1.60;;;;;;;;;;5088526;28;20441;-82
2022/08/02 14:25:08;;;;;;;1.58;1.48;;;;;;;;;;5084589;28;20046;-83
2022/08/02 14:27:34;;;;;;;1.60;1.50;;;;;;;;;;5068823;28;20052;-82
2022/08/02 14:30:00;;;;;;;2.13;1.70;;;;;;;;;;5084090;28;20079;-81
2022/08/02 14:32:26;;;;;;;1.58;1.48;;;;;;;;;;5070869;28;20021;-80
2022/08/02 14:34:52;;;;;;;2.25;1.60;;;;;;;;;;5071507;28;20024;-81
2022/08/02 14:37:20;;;;;;;1.70;1.60;;;;;;;;;;5070841;28;20222;-82
2022/08/02 14:39:46;;;;;;;3.05;1.65;;;;;;;;;;5074157;28;20093;-81
2022/08/02 14:42:12;;;;;;;1.88;1.55;;;;;;;;;;5056753;28;20215;-80
2022/08/02 14:44:38;;;;;;;2.38;1.80;;;;;;;;;;5075865;28;20394;-81
2022/08/02 14:47:07;;;;;;;1.98;1.80;;;;;;;;;;5072431;28;20027;-84
2022/08/02 14:49:33;;;;;;;3.88;1.48;;;;;;;;;;5063067;28;20040;-84